Akhiok, Alaska
Current Conditions -  °F | °C
As of 2:53 PM on Saturday 25 Oct 2014 (Local Time) from PADQ Reporting Station
Few Clouds Few Clouds  
Wind Chill: 43°   Ceiling: Unl
Heat Index: 46°   Visibility: 10mi
Dew Point: 27°   Wind: 6mph
Humidity: 47%   Direction: NA
Pressure: 29.86"   Gusts: NA
Location:  57.454°N, 153.546°W
Report Text: PADQ 252253Z VRB05KT 10SM FEW030 08/M03 A2986 RMK AO2 SLP111 T00781028
Loading
Personal Weather Stations






























Interactive Weather Map
Tropical Storm Tracking
New forecast layout! Learn more

10-Day Weather Forecast

Advertisements
Track Severe Weather on mobile